Time;durP1;ratioP1;P1;durP2;ratioP2;P2;SDS_P1;SDS_P2;PMS_P1;PMS_P2;Temp;Humidity;BMP_temperature;BMP_pressure;BME280_temperature;BME280_humidity;BME280_pressure;Samples;Min_cycle;Max_cycle;Signal;HPM_P1;HPM_P2
2021/05/14 00:00:37;;;;;;;3.85;2.00;;;;;;;6.06;83.75;100681.53;4968613;28;20063;-86
2021/05/14 00:03:02;;;;;;;3.33;1.80;;;;;;;5.94;83.04;100651.50;4957522;28;20504;-85
2021/05/14 00:05:28;;;;;;;7.55;1.67;;;;;;;5.80;82.99;100645.81;4972280;28;20129;-85
2021/05/14 00:07:54;;;;;;;4.07;1.45;;;;;;;5.77;82.88;100662.97;4967066;28;20116;-85
2021/05/14 00:10:20;;;;;;;5.88;1.60;;;;;;;5.73;82.50;100670.41;4988478;28;20045;-85
2021/05/14 00:12:50;;;;;;;5.20;1.58;;;;;;;5.70;83.44;100667.19;4956080;28;20031;-85
2021/05/14 00:15:19;;;;;;;6.40;1.90;;;;;;;5.67;83.23;100657.66;4976760;28;20037;-84
2021/05/14 00:17:45;;;;;;;7.20;2.15;;;;;;;5.73;83.21;100651.72;4968410;28;20034;-85
2021/05/14 00:20:11;;;;;;;6.55;1.88;;;;;;;5.60;83.06;100645.88;4971889;28;20023;-86
2021/05/14 00:22:37;;;;;;;7.22;1.52;;;;;;;5.43;82.83;100652.00;4987828;28;20038;-85
2021/05/14 00:25:05;;;;;;;6.82;1.60;;;;;;;5.20;83.88;100654.16;4972208;28;20035;-86
2021/05/14 00:27:31;;;;;;;7.65;1.70;;;;;;;5.11;83.76;100657.66;4972410;28;20133;-85
2021/05/14 00:29:56;;;;;;;4.55;1.45;;;;;;;5.16;83.90;100658.06;4969842;28;20529;-85
2021/05/14 00:32:21;;;;;;;6.05;1.52;;;;;;;5.22;83.71;100663.69;4952191;28;20028;-87
2021/05/14 00:34:47;;;;;;;6.72;1.80;;;;;;;5.27;83.93;100661.44;4969784;28;20039;-85
2021/05/14 00:37:12;;;;;;;7.90;1.77;;;;;;;5.04;83.90;100612.09;4947426;28;20057;-85
2021/05/14 00:39:38;;;;;;;15.02;2.75;;;;;;;5.40;83.86;100658.47;4970838;28;20142;-85
2021/05/14 00:42:03;;;;;;;6.28;1.90;;;;;;;5.32;83.39;100647.69;4983877;28;20102;-86
2021/05/14 00:44:36;;;;;;;7.45;2.72;;;;;;;5.46;83.41;100665.03;4971038;28;20026;-84
2021/05/14 00:47:04;;;;;;;6.07;2.50;;;;;;;5.50;84.04;100661.94;4967058;28;20018;-85
2021/05/14 00:49:29;;;;;;;5.63;2.53;;;;;;;5.50;83.75;100653.94;4978073;28;20270;-85
2021/05/14 00:51:56;;;;;;;4.05;2.42;;;;;;;5.45;83.47;100645.53;4975993;28;20126;-84
2021/05/14 00:54:22;;;;;;;7.07;2.63;;;;;;;5.49;83.38;100652.22;4955061;28;20061;-85
2021/05/14 00:56:48;;;;;;;4.57;2.40;;;;;;;5.33;83.29;100630.69;4970974;28;20482;-87
2021/05/14 00:59:14;;;;;;;3.85;2.03;;;;;;;5.50;83.58;100661.06;4967743;28;20053;-86
2021/05/14 01:01:39;;;;;;;3.72;2.08;;;;;;;5.49;83.55;100656.72;4993674;28;20478;-85
2021/05/14 01:04:05;;;;;;;2.72;1.70;;;;;;;5.51;82.75;100665.44;4983396;28;20038;-86
2021/05/14 01:06:31;;;;;;;2.85;2.05;;;;;;;5.41;82.58;100661.94;4954941;28;20173;-85
2021/05/14 01:08:58;;;;;;;2.80;1.80;;;;;;;5.20;82.46;100649.66;4970605;28;20478;-85
2021/05/14 01:11:24;;;;;;;4.40;1.85;;;;;;;5.14;82.40;100652.06;4970708;28;20023;-86
2021/05/14 01:13:49;;;;;;;5.13;2.17;;;;;;;5.13;81.90;100661.84;4972147;28;20038;-85
2021/05/14 01:16:15;;;;;;;4.82;1.98;;;;;;;5.12;82.87;100664.69;4954639;28;20037;-85
2021/05/14 01:18:40;;;;;;;3.97;1.83;;;;;;;5.13;82.46;100661.84;4968951;28;20027;-85
2021/05/14 01:21:05;;;;;;;7.72;2.42;;;;;;;5.19;82.73;100674.63;4957592;28;20023;-85
2021/05/14 01:23:31;;;;;;;8.07;2.67;;;;;;;5.21;83.28;100678.00;4971028;28;20030;-85
2021/05/14 01:25:56;;;;;;;9.85;3.00;;;;;;;5.14;83.26;100665.38;4969704;28;20301;-86
2021/05/14 01:28:22;;;;;;;13.55;2.58;;;;;;;5.25;83.13;100678.53;4969321;28;20027;-86
2021/05/14 01:30:47;;;;;;;7.18;2.40;;;;;;;5.03;83.51;100661.06;4980714;28;20022;-84
2021/05/14 01:33:13;;;;;;;12.27;3.03;;;;;;;5.14;83.93;100686.72;4955926;28;20029;-85
2021/05/14 01:35:40;;;;;;;13.32;2.83;;;;;;;5.05;83.33;100675.06;4969319;28;20035;-87
2021/05/14 01:38:06;;;;;;;8.68;2.60;;;;;;;5.10;83.37;100685.31;4969946;28;20022;-84
2021/05/14 01:40:35;;;;;;;8.95;2.30;;;;;;;5.04;84.02;100676.88;4970517;28;20163;-84
2021/05/14 01:43:00;;;;;;;10.38;2.35;;;;;;;4.97;84.55;100669.59;4951148;28;20018;-86
2021/05/14 01:45:26;;;;;;;8.77;2.00;;;;;;;4.89;84.62;100677.47;4972891;28;20122;-85
2021/05/14 01:47:51;;;;;;;10.45;1.90;;;;;;;4.90;84.65;100685.31;4971111;28;20093;-85
2021/05/14 01:50:18;;;;;;;7.43;1.95;;;;;;;4.76;84.94;100659.09;4969359;28;20029;-85
2021/05/14 01:52:43;;;;;;;3.25;1.60;;;;;;;4.81;84.66;100659.50;4964140;28;20171;-85
2021/05/14 01:55:09;;;;;;;8.20;1.50;;;;;;;4.89;84.11;100670.31;4968833;28;20629;-86
2021/05/14 01:57:35;;;;;;;3.72;1.30;;;;;;;4.83;84.62;100674.38;4981763;28;20097;-85
2021/05/14 02:00:00;;;;;;;8.35;1.50;;;;;;;4.58;84.24;100635.00;4969931;28;20105;-85
2021/05/14 02:02:25;;;;;;;5.07;1.60;;;;;;;4.76;84.67;100675.06;4993371;28;21695;-86
2021/05/14 02:04:51;;;;;;;6.10;1.45;;;;;;;4.60;84.59;100657.00;5001158;28;20104;-84
2021/05/14 02:07:16;;;;;;;4.93;1.40;;;;;;;4.61;85.14;100664.84;4968896;28;20449;-84
2021/05/14 02:09:42;;;;;;;6.40;1.50;;;;;;;4.70;85.95;100670.31;4969416;28;20054;-85
2021/05/14 02:12:08;;;;;;;6.43;1.70;;;;;;;4.75;85.27;100668.06;4968961;28;20534;-84
2021/05/14 02:14:34;;;;;;;9.80;1.52;;;;;;;4.71;85.86;100658.66;4955463;28;20038;-86
2021/05/14 02:16:59;;;;;;;5.63;1.40;;;;;;;4.81;85.76;100663.00;4966575;28;20094;-85
2021/05/14 02:19:25;;;;;;;5.40;1.60;;;;;;;4.79;85.73;100662.34;4953071;28;20107;-84
2021/05/14 02:21:50;;;;;;;9.02;1.60;;;;;;;4.79;85.42;100654.34;4965625;28;20035;-85
2021/05/14 02:24:16;;;;;;;3.13;1.17;;;;;;;4.67;85.84;100647.47;4964271;28;20044;-87
2021/05/14 02:26:41;;;;;;;3.90;1.50;;;;;;;4.43;85.74;100615.94;4969934;28;20405;-86
2021/05/14 02:29:07;;;;;;;3.05;1.40;;;;;;;4.67;86.34;100662.63;4966119;28;20039;-87
2021/05/14 02:31:32;;;;;;;1.98;1.20;;;;;;;4.62;86.00;100652.38;4971794;28;20027;-84
2021/05/14 02:33:57;;;;;;;3.33;1.05;;;;;;;4.42;85.70;100635.56;4968404;28;20057;-87
2021/05/14 02:36:23;;;;;;;3.65;1.20;;;;;;;4.57;85.74;100657.28;4966085;28;20520;-85
2021/05/14 02:38:48;;;;;;;4.30;1.30;;;;;;;4.64;85.79;100663.72;4966937;28;20126;-85
2021/05/14 02:41:14;;;;;;;4.57;1.30;;;;;;;4.35;85.13;100613.97;4953840;28;20394;-86
2021/05/14 02:43:40;;;;;;;4.00;1.20;;;;;;;4.61;85.60;100648.88;4969973;28;20058;-84
2021/05/14 02:46:06;;;;;;;4.13;1.10;;;;;;;4.62;85.96;100647.03;4970680;28;20070;-85
2021/05/14 02:48:32;;;;;;;4.53;1.30;;;;;;;4.55;85.63;100625.47;4971658;28;20478;-86
2021/05/14 02:50:58;;;;;;;6.22;1.27;;;;;;;4.64;85.57;100642.44;4971385;28;20030;-86
2021/05/14 02:53:23;;;;;;;2.83;1.30;;;;;;;4.67;86.09;100650.13;4983109;28;20022;-87
2021/05/14 02:55:49;;;;;;;3.80;1.17;;;;;;;4.68;85.99;100643.81;4964186;28;20019;-86
2021/05/14 02:58:14;;;;;;;4.10;1.00;;;;;;;4.67;86.20;100650.13;4998094;28;20037;-86
2021/05/14 03:00:40;;;;;;;4.20;1.20;;;;;;;4.51;86.07;100636.53;4970594;28;20027;-87
2021/05/14 03:03:06;;;;;;;2.55;1.20;;;;;;;4.51;86.62;100639.19;4964232;28;20051;-84
2021/05/14 03:05:31;;;;;;;2.72;1.38;;;;;;;4.45;86.95;100640.59;4969433;28;20030;-85
2021/05/14 03:07:57;;;;;;;3.25;1.23;;;;;;;4.49;87.00;100643.81;4974030;28;20038;-85
2021/05/14 03:10:22;;;;;;;6.15;1.30;;;;;;;4.51;87.84;100645.34;4972882;28;20029;-86
2021/05/14 03:12:48;;;;;;;6.38;1.50;;;;;;;4.44;88.13;100640.72;4983500;28;20557;-85
2021/05/14 03:15:13;;;;;;;5.15;1.48;;;;;;;4.38;88.20;100637.63;4954873;28;20027;-87
2021/05/14 03:17:39;;;;;;;4.60;1.55;;;;;;;4.54;88.04;100639.75;4949329;28;20057;-85
2021/05/14 03:20:06;;;;;;;2.92;1.80;;;;;;;4.65;87.97;100645.94;5001920;28;20031;-87
2021/05/14 03:22:31;;;;;;;6.10;1.45;;;;;;;4.70;88.04;100641.84;4976264;28;20918;-87
2021/05/14 03:24:56;;;;;;;1.33;1.00;;;;;;;4.77;87.42;100645.66;4956999;28;20052;-85
2021/05/14 03:27:22;;;;;;;3.28;1.15;;;;;;;4.63;87.51;100625.63;4971542;28;20023;-86
2021/05/14 03:29:47;;;;;;;1.63;1.20;;;;;;;4.65;87.87;100643.25;4974274;28;20050;-85
2021/05/14 03:32:13;;;;;;;2.50;1.30;;;;;;;4.53;87.63;100632.75;4970968;28;20027;-86
2021/05/14 03:34:38;;;;;;;2.38;1.33;;;;;;;4.52;87.59;100627.56;4965947;28;20027;-84
2021/05/14 03:37:04;;;;;;;2.88;1.20;;;;;;;4.52;87.78;100632.88;4986780;28;20081;-85
2021/05/14 03:39:30;;;;;;;4.25;1.40;;;;;;;4.56;87.50;100631.63;5003893;28;20037;-83
2021/05/14 03:42:13;;;;;;;3.40;1.40;;;;;;;4.45;88.19;100607.81;4996934;28;20027;-84
2021/05/14 03:44:39;;;;;;;2.67;1.35;;;;;;;4.52;88.55;100622.22;4975088;28;20026;-85
2021/05/14 03:47:05;;;;;;;3.40;1.80;;;;;;;4.54;88.25;100621.09;4997820;28;20019;-86
2021/05/14 03:49:30;;;;;;;3.50;1.40;;;;;;;4.35;88.25;100579.34;4971605;28;20030;-87
2021/05/14 03:51:56;;;;;;;3.35;1.45;;;;;;;4.56;88.09;100603.19;4975167;28;20029;-87
2021/05/14 03:54:22;;;;;;;2.67;1.52;;;;;;;4.67;88.23;100606.69;4970808;28;20095;-85
2021/05/14 03:56:48;;;;;;;4.43;1.60;;;;;;;4.74;88.38;100610.47;4999858;28;20038;-85
2021/05/14 03:59:15;;;;;;;1.90;1.38;;;;;;;4.74;88.50;100605.97;4956414;28;20034;-85
2021/05/14 04:01:40;;;;;;;3.50;1.50;;;;;;;4.72;88.56;100607.94;4987654;28;20031;-85
2021/05/14 04:04:06;;;;;;;2.65;1.40;;;;;;;4.57;88.44;100588.03;4999876;28;20109;-87
2021/05/14 04:06:31;;;;;;;4.35;1.48;;;;;;;4.67;88.28;100606.69;4973026;28;20486;-85
2021/05/14 04:08:56;;;;;;;3.58;1.50;;;;;;;4.43;88.24;100552.03;4973279;28;20118;-86
2021/05/14 04:16:34;;;;;;;5.82;1.77;;;;;;;4.92;88.59;100602.56;4965909;28;20057;-86
2021/05/14 04:19:02;;;;;;;2.67;1.60;;;;;;;4.98;89.07;100602.84;4954185;28;20489;-85
2021/05/14 04:21:27;;;;;;;8.57;1.95;;;;;;;5.02;88.62;100598.06;4970048;28;20077;-85
2021/05/14 04:23:53;;;;;;;3.45;1.70;;;;;;;5.05;88.47;100595.13;4972256;28;20026;-83
2021/05/14 04:26:18;;;;;;;7.88;1.85;;;;;;;5.13;88.38;100595.22;5000267;28;20167;-84
2021/05/14 04:28:43;;;;;;;8.05;1.80;;;;;;;5.13;87.93;100603.22;4988712;28;20062;-85
2021/05/14 04:31:09;;;;;;;4.90;1.70;;;;;;;5.15;88.11;100589.75;4973122;28;20066;-83
2021/05/14 04:33:34;;;;;;;5.22;2.10;;;;;;;5.18;88.28;100597.47;4984220;28;20034;-85
2021/05/14 04:36:00;;;;;;;9.13;1.80;;;;;;;5.24;88.81;100602.25;4968133;28;20019;-85
2021/05/14 04:38:25;;;;;;;6.32;1.80;;;;;;;5.32;88.42;100615.69;4967614;28;20035;-85
2021/05/14 04:40:50;;;;;;;8.52;2.05;;;;;;;5.37;88.77;100618.75;4967989;28;20023;-86
2021/05/14 04:43:16;;;;;;;9.38;1.80;;;;;;;5.38;88.64;100603.59;4971293;28;20027;-86
2021/05/14 04:45:41;;;;;;;10.82;2.00;;;;;;;5.45;88.88;100612.66;4971607;28;20923;-87
2021/05/14 04:48:10;;;;;;;8.75;1.70;;;;;;;5.57;88.76;100624.84;4999760;28;20544;-86
2021/05/14 04:50:37;;;;;;;8.65;2.00;;;;;;;5.36;88.77;100578.91;5002186;28;20022;-86
2021/05/14 04:53:07;;;;;;;4.30;1.60;;;;;;;5.47;88.73;100610.69;5001477;28;20537;-87
2021/05/14 04:55:33;;;;;;;7.55;1.75;;;;;;;5.50;89.21;100626.41;4971101;28;20023;-86
2021/05/14 04:57:59;;;;;;;8.23;2.00;;;;;;;5.28;89.24;100579.63;4970409;28;20540;-86
2021/05/14 05:00:24;;;;;;;8.27;1.73;;;;;;;5.28;88.84;100583.13;4971409;28;20035;-87
2021/05/14 05:02:50;;;;;;;9.90;2.05;;;;;;;5.65;89.14;100614.28;4970934;28;20026;-85
2021/05/14 05:05:16;;;;;;;7.20;1.90;;;;;;;5.46;89.17;100587.69;4954714;28;20409;-85
2021/05/14 05:07:42;;;;;;;7.70;2.10;;;;;;;5.55;89.12;100605.47;4996662;28;20027;-86
2021/05/14 05:10:08;;;;;;;6.20;1.92;;;;;;;5.55;89.00;100593.97;4970998;28;20023;-86
2021/05/14 05:12:33;;;;;;;5.53;1.98;;;;;;;5.55;89.55;100610.81;4971481;28;20030;-85
2021/05/14 05:14:58;;;;;;;8.75;1.95;;;;;;;5.39;89.26;100578.59;4970515;28;20027;-87
2021/05/14 05:17:24;;;;;;;6.75;1.77;;;;;;;5.35;89.50;100566.56;4984617;28;20026;-85
2021/05/14 05:19:50;;;;;;;6.32;1.95;;;;;;;5.45;89.77;100575.31;4986077;28;20066;-86
2021/05/14 05:22:16;;;;;;;5.85;1.95;;;;;;;5.55;89.85;100594.81;4983064;28;20049;-86
2021/05/14 05:24:41;;;;;;;4.95;1.85;;;;;;;5.56;90.02;100590.28;4970515;28;20363;-87
2021/05/14 05:27:07;;;;;;;9.75;1.88;;;;;;;5.54;90.21;100593.13;4971141;28;20042;-85
2021/05/14 05:29:35;;;;;;;8.20;2.25;;;;;;;5.31;90.09;100555.31;4968304;28;20812;-85
2021/05/14 05:32:00;;;;;;;6.88;1.85;;;;;;;5.55;90.60;100584.13;4970994;28;20037;-88
2021/05/14 05:34:27;;;;;;;10.60;2.30;;;;;;;5.71;90.33;100600.34;4970000;28;20023;-86
2021/05/14 05:36:53;;;;;;;8.23;2.33;;;;;;;5.71;90.59;100583.50;4970649;28;20106;-85
2021/05/14 05:39:18;;;;;;;8.65;2.22;;;;;;;5.78;90.58;100584.59;4956173;28;20114;-86
2021/05/14 05:41:44;;;;;;;9.23;2.38;;;;;;;5.81;90.76;100573.59;4969149;28;20027;-87
2021/05/14 05:44:09;;;;;;;10.00;2.10;;;;;;;5.70;90.74;100549.81;4949725;28;20023;-85
2021/05/14 05:46:34;;;;;;;5.10;1.83;;;;;;;5.88;90.72;100571.19;4967990;28;20026;-85
2021/05/14 05:49:00;;;;;;;6.13;2.28;;;;;;;5.98;90.91;100566.66;5000324;28;20431;-85
2021/05/14 05:51:25;;;;;;;10.95;2.08;;;;;;;6.07;90.45;100573.75;4968484;28;20594;-87
2021/05/14 05:53:51;;;;;;;9.43;2.30;;;;;;;6.08;90.33;100562.09;4967647;28;20488;-86
2021/05/14 05:56:16;;;;;;;12.02;1.90;;;;;;;6.01;90.46;100546.84;4967944;28;20038;-85
2021/05/14 05:58:42;;;;;;;11.25;1.83;;;;;;;6.15;90.81;100568.50;4969377;28;20088;-85
2021/05/14 06:01:07;;;;;;;3.03;1.75;;;;;;;6.16;90.56;100561.31;4959581;28;20031;-85
2021/05/14 06:03:33;;;;;;;9.52;2.25;;;;;;;6.07;90.67;100539.06;4967983;28;20030;-87
2021/05/14 06:05:58;;;;;;;5.40;2.13;;;;;;;6.35;90.84;100565.66;4966774;28;20022;-86
2021/05/14 06:08:24;;;;;;;6.78;2.22;;;;;;;6.39;91.03;100557.22;4959999;28;20026;-85
2021/05/14 06:10:52;;;;;;;4.18;2.30;;;;;;;6.48;91.06;100568.78;4968936;28;20058;-86
2021/05/14 06:13:17;;;;;;;11.90;2.75;;;;;;;6.42;90.94;100540.03;4969614;28;20054;-86
2021/05/14 06:15:43;;;;;;;7.85;2.90;;;;;;;6.57;91.08;100565.22;4969839;28;20015;-87
2021/05/14 06:18:13;;;;;;;4.65;2.80;;;;;;;6.58;91.07;100553.53;4968176;28;20501;-86
2021/05/14 06:20:41;;;;;;;13.20;3.35;;;;;;;6.68;91.48;100561.44;4962920;28;20027;-85
2021/05/14 06:23:08;;;;;;;13.70;2.85;;;;;;;6.50;90.77;100534.75;4969329;28;20102;-86
2021/05/14 06:25:34;;;;;;;7.88;3.00;;;;;;;6.59;91.43;100541.03;5002041;28;20061;-87
2021/05/14 06:27:59;;;;;;;13.40;3.00;;;;;;;6.67;91.69;100553.56;4977175;28;20402;-86
2021/05/14 06:30:25;;;;;;;8.98;3.05;;;;;;;6.65;91.60;100543.06;4970005;28;20027;-85
2021/05/14 06:32:51;;;;;;;14.50;2.95;;;;;;;6.50;91.21;100510.72;4969668;28;20437;-85
2021/05/14 06:35:16;;;;;;;10.38;3.25;;;;;;;6.95;91.13;100552.44;4967548;28;20027;-85
2021/05/14 06:37:43;;;;;;;12.43;3.10;;;;;;;7.13;91.13;100549.72;4968926;28;20027;-85
2021/05/14 06:40:09;;;;;;;13.48;3.25;;;;;;;7.21;91.11;100539.06;4969780;28;20027;-84
2021/05/14 06:42:35;;;;;;;7.38;3.22;;;;;;;7.36;91.12;100546.50;4973108;28;20026;-85
2021/05/14 06:45:01;;;;;;;22.55;3.70;;;;;;;7.29;90.86;100527.56;4973071;28;20027;-85
2021/05/14 06:47:26;;;;;;;10.88;3.60;;;;;;;7.42;90.80;100535.16;4973087;28;20018;-85
2021/05/14 06:49:52;;;;;;;14.52;3.30;;;;;;;7.52;90.55;100543.91;5005607;28;20019;-84
2021/05/14 06:52:17;;;;;;;7.95;3.38;;;;;;;7.59;90.46;100530.69;4974287;28;20045;-84
2021/05/14 06:54:43;;;;;;;10.57;3.47;;;;;;;7.48;90.57;100515.78;4971144;28;20102;-85
2021/05/14 06:57:09;;;;;;;17.55;4.35;;;;;;;7.77;90.69;100547.47;4983071;28;20504;-85
2021/05/14 06:59:35;;;;;;;26.63;4.43;;;;;;;7.82;90.61;100545.16;4972465;28;20031;-85
2021/05/14 07:02:00;;;;;;;12.32;4.95;;;;;;;7.82;90.98;100538.97;4971472;28;20037;-83
2021/05/14 07:04:25;;;;;;;18.52;5.30;;;;;;;7.82;90.82;100538.97;4972166;28;20382;-85
2021/05/14 07:06:51;;;;;;;21.25;4.03;;;;;;;7.73;90.94;100522.06;4974048;28;20485;-84
2021/05/14 07:09:16;;;;;;;28.65;4.88;;;;;;;7.91;90.82;100543.34;4959312;28;20095;-86
2021/05/14 07:11:42;;;;;;;21.27;4.50;;;;;;;7.94;90.96;100543.03;4972780;28;20034;-86
2021/05/14 07:14:07;;;;;;;27.95;4.75;;;;;;;7.94;90.98;100537.69;4973179;28;20026;-86
2021/05/14 07:16:32;;;;;;;15.90;4.05;;;;;;;7.80;90.79;100520.38;4999901;28;20494;-86
2021/05/14 07:18:58;;;;;;;11.80;4.40;;;;;;;7.91;91.18;100527.28;4968759;28;20027;-86
2021/05/14 07:21:24;;;;;;;12.00;5.15;;;;;;;8.16;91.02;100546.91;4989059;28;20023;-85
2021/05/14 07:23:49;;;;;;;10.13;4.60;;;;;;;8.05;91.09;100501.72;4978191;28;20022;-85
2021/05/14 07:26:16;;;;;;;12.02;4.45;;;;;;;8.35;90.95;100541.22;4988304;28;20022;-85
2021/05/14 07:28:42;;;;;;;13.15;4.60;;;;;;;8.41;90.72;100539.75;4966733;28;20062;-86
2021/05/14 07:31:07;;;;;;;9.25;4.32;;;;;;;8.50;90.80;100533.41;4971701;28;20027;-86
2021/05/14 07:33:32;;;;;;;14.13;4.35;;;;;;;8.56;90.47;100532.72;4971893;28;20482;-86
2021/05/14 07:35:58;;;;;;;10.18;4.30;;;;;;;8.65;90.08;100535.41;4952789;28;20041;-85
2021/05/14 07:38:23;;;;;;;10.45;4.50;;;;;;;8.74;89.93;100524.50;4974440;28;20027;-85
2021/05/14 07:40:49;;;;;;;9.32;3.65;;;;;;;8.92;89.88;100536.88;4970004;28;20533;-84
2021/05/14 07:43:14;;;;;;;10.85;4.30;;;;;;;8.82;89.31;100520.16;4975938;28;20038;-84
2021/05/14 07:45:40;;;;;;;10.20;3.78;;;;;;;8.86;89.14;100514.25;4973813;28;20486;-84
2021/05/14 07:48:06;;;;;;;8.45;4.07;;;;;;;8.96;88.81;100531.00;4986552;28;20109;-85
2021/05/14 07:50:33;;;;;;;11.70;4.10;;;;;;;8.94;89.02;100513.41;4952733;28;20054;-85
2021/05/14 07:52:58;;;;;;;9.57;4.20;;;;;;;9.14;89.12;100519.22;4957257;28;20170;-84
2021/05/14 07:55:24;;;;;;;7.13;3.88;;;;;;;9.23;88.48;100512.81;4990441;28;20117;-83
2021/05/14 07:57:49;;;;;;;5.93;4.03;;;;;;;9.28;88.20;100505.09;4957717;28;20478;-84
2021/05/14 08:00:15;;;;;;;10.27;4.15;;;;;;;9.40;88.29;100497.50;4971172;28;20023;-84
2021/05/14 08:02:41;;;;;;;10.05;4.03;;;;;;;9.51;87.78;100499.78;4997640;28;20027;-84
2021/05/14 08:05:06;;;;;;;6.32;3.45;;;;;;;9.49;87.80;100493.75;4969136;28;20846;-84
2021/05/14 08:07:32;;;;;;;7.18;3.78;;;;;;;9.51;87.67;100499.78;4959546;28;20425;-85
2021/05/14 08:09:57;;;;;;;9.70;4.38;;;;;;;9.46;87.70;100486.91;4969453;28;20026;-85
2021/05/14 08:12:23;;;;;;;7.55;5.55;;;;;;;9.50;87.47;100492.75;4996097;28;20027;-85
2021/05/14 08:14:48;;;;;;;7.28;4.18;;;;;;;9.49;87.25;100480.34;4969011;28;20085;-85
2021/05/14 08:17:14;;;;;;;9.98;5.70;;;;;;;9.67;87.05;100491.66;5005331;28;20019;-84
2021/05/14 08:19:39;;;;;;;8.93;5.05;;;;;;;9.77;86.66;100487.91;4957182;28;20393;-85
2021/05/14 08:22:05;;;;;;;10.55;4.57;;;;;;;9.87;86.50;100492.06;4961432;28;20031;-85
2021/05/14 08:24:31;;;;;;;11.30;4.65;;;;;;;9.91;85.99;100484.47;4973672;28;20089;-83
2021/05/14 08:26:56;;;;;;;10.27;4.43;;;;;;;9.99;85.82;100475.50;4969987;28;20074;-84
2021/05/14 08:29:22;;;;;;;8.25;4.05;;;;;;;10.07;85.49;100484.34;4974883;28;20090;-83
2021/05/14 08:31:47;;;;;;;8.55;4.00;;;;;;;10.13;85.21;100489.03;5002701;28;20027;-85
2021/05/14 08:34:13;;;;;;;7.65;4.28;;;;;;;10.10;84.68;100472.41;4968869;28;20482;-85
2021/05/14 08:36:40;;;;;;;7.55;4.05;;;;;;;10.14;84.63;100481.78;4969425;28;20034;-85
2021/05/14 08:39:07;;;;;;;12.65;3.53;;;;;;;10.17;84.24;100484.09;4991440;28;20454;-85
2021/05/14 08:41:34;;;;;;;6.45;3.50;;;;;;;9.99;84.39;100459.41;4989593;28;20045;-86
2021/05/14 08:44:00;;;;;;;8.90;3.58;;;;;;;10.11;84.20;100482.16;4963195;28;20034;-85
2021/05/14 08:46:36;;;;;;;4.88;3.53;;;;;;;9.97;83.70;100462.25;4973229;28;20029;-85
2021/05/14 08:49:02;;;;;;;5.30;3.72;;;;;;;9.89;83.97;100438.97;4970208;28;20015;-85
2021/05/14 08:51:30;;;;;;;8.02;3.58;;;;;;;10.14;84.15;100454.91;4969812;28;20034;-85
2021/05/14 08:54:06;;;;;;;8.80;3.17;;;;;;;10.24;83.05;100447.44;4968588;28;20121;-86
2021/05/14 08:56:32;;;;;;;6.60;3.10;;;;;;;10.49;82.17;100482.19;4971445;28;20089;-84
2021/05/14 08:58:59;;;;;;;4.20;2.90;;;;;;;10.59;82.04;100465.81;4943694;28;20114;-84
2021/05/14 09:01:25;;;;;;;6.57;2.97;;;;;;;10.73;82.00;100467.69;4971041;28;20438;-83
2021/05/14 09:04:07;;;;;;;6.47;2.83;;;;;;;10.87;82.08;100466.84;4982849;28;20034;-83
2021/05/14 09:06:37;;;;;;;8.02;2.80;;;;;;;11.00;81.27;100460.81;4961178;28;20058;-84
2021/05/14 09:09:05;;;;;;;6.50;2.85;;;;;;;11.07;79.60;100451.00;4974868;28;20061;-83
2021/05/14 09:11:37;;;;;;;4.97;2.55;;;;;;;11.25;79.29;100439.84;4955373;28;20031;-84
2021/05/14 09:14:04;;;;;;;4.35;2.28;;;;;;;11.44;77.82;100423.09;4969035;28;20090;-84
2021/05/14 09:16:40;;;;;;;8.13;2.65;;;;;;;11.91;77.11;100449.69;4982466;28;20413;-84
2021/05/14 09:19:06;;;;;;;8.23;2.42;;;;;;;12.16;75.97;100458.25;4993118;28;20068;-84
2021/05/14 09:21:32;;;;;;;6.93;2.30;;;;;;;12.18;74.21;100448.09;4992238;28;20046;-85
2021/05/14 09:23:57;;;;;;;6.10;2.20;;;;;;;12.32;74.17;100455.28;5004013;28;20517;-86
2021/05/14 09:26:27;;;;;;;6.07;2.28;;;;;;;12.60;73.35;100452.59;5000948;28;20394;-85
2021/05/14 09:28:52;;;;;;;4.95;1.98;;;;;;;12.54;72.82;100442.56;4970385;28;20110;-84
2021/05/14 09:31:25;;;;;;;8.15;2.13;;;;;;;12.68;71.76;100446.22;4999727;28;20103;-83
2021/05/14 09:33:53;;;;;;;6.65;2.05;;;;;;;12.89;72.30;100438.03;4954754;28;20041;-84
2021/05/14 09:36:30;;;;;;;5.97;1.80;;;;;;;13.41;69.25;100435.81;4970207;28;20106;-86
2021/05/14 09:39:00;;;;;;;5.97;1.90;;;;;;;13.40;68.42;100428.75;4954350;28;20113;-85
2021/05/14 09:41:38;;;;;;;5.20;1.85;;;;;;;13.38;68.25;100417.31;4970952;28;20019;-84
2021/05/14 09:44:20;;;;;;;4.10;2.42;;;;;;;13.64;67.86;100401.19;4969069;28;20113;-85
2021/05/14 09:46:46;;;;;;;5.13;1.60;;;;;;;14.06;66.00;100398.34;4981073;28;20027;-85
2021/05/14 09:49:13;;;;;;;6.13;1.60;;;;;;;14.38;64.40;100398.53;4969821;28;20062;-85
2021/05/14 09:51:46;;;;;;;5.50;1.67;;;;;;;14.47;63.44;100384.59;4967814;28;20053;-85
2021/05/14 09:54:24;;;;;;;5.60;1.55;;;;;;;14.41;63.27;100379.19;4971232;28;20162;-84
2021/05/14 09:59:56;;;;;;;5.45;1.70;;;;;;;13.64;63.56;100363.34;4970906;28;20031;-85
2021/05/14 10:02:33;;;;;;;2.53;1.40;;;;;;;13.73;62.92;100363.16;4954611;28;20478;-85
2021/05/14 10:05:00;;;;;;;2.78;1.10;;;;;;;13.87;63.09;100358.63;4970023;28;20419;-84
2021/05/14 10:07:27;;;;;;;3.17;1.30;;;;;;;14.00;62.05;100348.63;4968425;28;20110;-85
2021/05/14 10:09:57;;;;;;;4.65;1.25;;;;;;;13.88;61.50;100339.47;4998321;28;20122;-85
2021/05/14 10:12:23;;;;;;;4.85;1.65;;;;;;;14.00;61.90;100348.63;4970099;28;20478;-84
2021/05/14 10:14:51;;;;;;;3.88;1.30;;;;;;;14.13;61.56;100344.25;4952876;28;20030;-84
2021/05/14 10:17:16;;;;;;;6.05;1.58;;;;;;;14.21;61.49;100322.41;4961497;28;20077;-85
2021/05/14 10:19:43;;;;;;;2.67;1.33;;;;;;;14.40;60.53;100340.47;4981863;28;20031;-84
2021/05/14 10:22:09;;;;;;;3.80;1.60;;;;;;;14.45;59.51;100337.16;4970029;28;20031;-84
2021/05/14 10:24:42;;;;;;;4.93;1.42;;;;;;;14.49;59.97;100347.31;4968940;28;20622;-85
2021/05/14 10:27:14;;;;;;;;;;;;;;;14.52;58.96;100332.53;4965694;28;20031;-86
2021/05/14 10:29:43;;;;;;;2.75;1.42;;;;;;;14.45;58.25;100335.28;4967119;28;20001;-85
2021/05/14 10:32:13;;;;;;;4.72;1.58;;;;;;;14.40;58.01;100318.84;4955246;28;20027;-85
2021/05/14 10:34:38;;;;;;;3.85;1.48;;;;;;;14.22;58.13;100305.16;4963118;28;20398;-85
2021/05/14 10:37:04;;;;;;;3.90;1.63;;;;;;;14.32;58.26;100331.78;4967089;28;20480;-86
2021/05/14 10:39:39;;;;;;;2.90;1.50;;;;;;;14.44;59.01;100328.19;4959564;28;20510;-84
2021/05/14 10:42:07;;;;;;;3.47;1.50;;;;;;;14.51;56.94;100326.28;4998407;28;20026;-85
2021/05/14 10:44:58;;;;;;;5.25;1.60;;;;;;;15.10;54.09;100324.44;4972500;28;20034;-85
2021/05/14 10:47:24;;;;;;;4.38;1.52;;;;;;;15.07;54.36;100326.75;4986683;28;20039;-84
2021/05/14 10:50:02;;;;;;;3.13;1.58;;;;;;;14.83;55.51;100320.19;4973218;28;20085;-84
2021/05/14 10:52:30;;;;;;;5.57;1.85;;;;;;;14.73;55.91;100324.16;4972910;28;20572;-84
2021/05/14 10:54:55;;;;;;;3.03;1.85;;;;;;;14.68;55.54;100302.31;4971348;28;20018;-85
2021/05/14 10:57:39;;;;;;;4.13;1.83;;;;;;;14.80;56.36;100321.44;4972977;28;20031;-84
2021/05/14 11:00:23;;;;;;;2.95;1.63;;;;;;;14.66;55.89;100312.56;4972761;28;20054;-84
2021/05/14 11:03:10;;;;;;;5.82;2.15;;;;;;;14.48;56.39;100318.63;4973166;28;20031;-85
2021/05/14 11:05:41;;;;;;;6.97;3.45;;;;;;;14.70;56.40;100308.38;4965831;28;20023;-85
2021/05/14 11:08:28;;;;;;;6.13;3.40;;;;;;;15.10;55.68;100299.22;4968882;28;20054;-84
2021/05/14 11:11:04;;;;;;;4.25;2.00;;;;;;;15.47;54.47;100299.44;4982578;28;20174;-85
2021/05/14 11:13:48;;;;;;;5.70;3.17;;;;;;;15.70;53.70;100294.28;4969083;28;20033;-85
2021/05/14 11:16:38;;;;;;;5.13;2.55;;;;;;;15.84;53.06;100276.00;4964647;28;20031;-85
2021/05/14 11:19:26;;;;;;;3.90;2.10;;;;;;;16.17;52.64;100264.88;4965226;28;20031;-83
2021/05/14 11:22:08;;;;;;;4.25;2.45;;;;;;;16.34;51.26;100265.09;5002300;28;20026;-84
2021/05/14 11:24:36;;;;;;;3.03;2.20;;;;;;;16.06;50.19;100246.59;4995500;28;20078;-84
2021/05/14 11:27:13;;;;;;;5.68;2.40;;;;;;;15.74;50.23;100257.53;4971243;28;20080;-85
2021/05/14 11:29:42;;;;;;;7.30;2.55;;;;;;;15.52;50.95;100248.13;4971414;28;20409;-84
2021/05/14 11:32:20;;;;;;;6.05;2.72;;;;;;;15.82;51.91;100241.00;5007079;28;20784;-84
2021/05/14 11:35:18;;;;;;;5.07;2.40;;;;;;;16.30;50.99;100222.34;4968115;28;20031;-84
2021/05/14 11:37:53;;;;;;;5.07;2.50;;;;;;;16.70;49.32;100223.53;4958441;28;20046;-85